Time;durP1;ratioP1;P1;durP2;ratioP2;P2;SDS_P1;SDS_P2;PMS_P1;PMS_P2;Temp;Humidity;BMP_temperature;BMP_pressure;BME280_temperature;BME280_humidity;BME280_pressure;Samples;Min_cycle;Max_cycle;Signal;HPM_P1;HPM_P2
2023/06/08 00:02:03;;;;;;;13.10;6.10;;;18.10;99.90;;;;;;5079112;28;20176;-60
2023/06/08 00:04:33;;;;;;;15.37;7.17;;;17.90;99.90;;;;;;5075996;28;20188;-60
2023/06/08 00:07:08;;;;;;;16.93;6.63;;;17.80;99.90;;;;;;5090204;28;20581;-59
2023/06/08 00:09:36;;;;;;;12.77;6.97;;;17.80;99.90;;;;;;5057836;28;20617;-60
2023/06/08 00:12:02;;;;;;;13.30;6.03;;;17.80;99.90;;;;;;5075135;28;20229;-60
2023/06/08 00:14:27;;;;;;;10.73;5.83;;;17.70;99.90;;;;;;5075718;28;20341;-61
2023/06/08 00:16:53;;;;;;;14.90;7.10;;;17.80;99.90;;;;;;5056246;28;20271;-60
2023/06/08 00:19:19;;;;;;;11.37;6.07;;;17.80;99.90;;;;;;5075740;28;20169;-61
2023/06/08 00:21:48;;;;;;;15.50;6.80;;;17.70;99.90;;;;;;5060004;28;20528;-60
2023/06/08 00:24:19;;;;;;;15.43;6.20;;;17.70;99.90;;;;;;5078272;28;20239;-59
2023/06/08 00:26:45;;;;;;;11.37;5.83;;;17.70;99.90;;;;;;5060566;28;20169;-60
2023/06/08 00:29:11;;;;;;;12.33;6.27;;;17.70;99.90;;;;;;5060890;28;20184;-61
2023/06/08 00:31:37;;;;;;;14.90;6.43;;;17.80;99.90;;;;;;5079041;28;20428;-61
2023/06/08 00:34:04;;;;;;;13.93;6.23;;;17.70;99.90;;;;;;5078431;28;20578;-61
2023/06/08 00:36:30;;;;;;;11.40;6.00;;;17.60;99.90;;;;;;5060084;28;20277;-58
2023/06/08 00:38:56;;;;;;;12.93;6.13;;;17.50;99.90;;;;;;5060303;28;20541;-58
2023/06/08 00:41:21;;;;;;;17.83;6.53;;;17.50;99.90;;;;;;5060850;28;20240;-59
2023/06/08 00:43:48;;;;;;;15.20;6.33;;;17.50;99.90;;;;;;5094348;28;20479;-59
2023/06/08 00:46:15;;;;;;;14.43;6.17;;;17.40;99.90;;;;;;5060329;28;20214;-59
2023/06/08 00:48:42;;;;;;;14.43;7.00;;;17.40;99.90;;;;;;5059872;28;20611;-58
2023/06/08 00:51:08;;;;;;;14.87;6.50;;;17.30;99.90;;;;;;5077404;28;20160;-59
2023/06/08 00:53:36;;;;;;;16.27;7.37;;;17.20;99.90;;;;;;5060938;28;20161;-60
2023/06/08 00:56:03;;;;;;;12.77;6.37;;;17.20;99.90;;;;;;5061069;28;20208;-60
2023/06/08 00:58:29;;;;;;;13.80;6.43;;;17.10;99.90;;;;;;5094034;28;20165;-59
2023/06/08 01:01:03;;;;;;;14.93;7.57;;;17.00;99.90;;;;;;5060091;28;20169;-60
2023/06/08 01:03:35;;;;;;;15.23;7.03;;;16.80;99.90;;;;;;5060431;28;20169;-59
2023/06/08 01:06:08;;;;;;;16.67;6.97;;;16.80;99.90;;;;;;5059619;28;20164;-59
2023/06/08 01:08:42;;;;;;;20.37;7.37;;;16.80;99.90;;;;;;5060630;28;20161;-60
2023/06/08 01:11:42;;;;;;;15.53;6.63;;;16.70;99.90;;;;;;5059968;28;20170;-58
2023/06/08 01:14:26;;;;;;;16.00;7.23;;;16.70;99.90;;;;;;5060385;28;20579;-59
2023/06/08 01:17:00;;;;;;;13.43;7.40;;;16.70;99.90;;;;;;5060485;28;20208;-59
2023/06/08 01:19:52;;;;;;;15.23;8.03;;;16.60;99.90;;;;;;5077449;28;20251;-57
2023/06/08 01:22:29;;;;;;;14.13;7.67;;;16.40;99.90;;;;;;5056229;28;20396;-59
2023/06/08 01:24:56;;;;;;;14.87;7.53;;;16.50;99.90;;;;;;5055741;28;20243;-58
2023/06/08 01:27:25;;;;;;;12.50;7.53;;;16.40;99.90;;;;;;5055584;28;20181;-59
2023/06/08 01:29:52;;;;;;;14.37;7.97;;;16.30;99.90;;;;;;5055121;28;20327;-59
2023/06/08 01:32:18;;;;;;;16.87;8.17;;;16.30;99.90;;;;;;5055398;28;20547;-60
2023/06/08 01:34:45;;;;;;;23.67;8.67;;;16.40;99.90;;;;;;5073819;28;20527;-58
2023/06/08 01:37:26;;;;;;;17.47;7.90;;;16.50;99.90;;;;;;5073720;28;20556;-58
2023/06/08 01:40:00;;;;;;;17.57;9.03;;;16.40;99.90;;;;;;5056992;28;20168;-59
2023/06/08 01:42:27;;;;;;;19.57;9.40;;;16.10;99.90;;;;;;5074407;28;20176;-59
2023/06/08 01:45:05;;;;;;;14.97;8.90;;;16.20;99.90;;;;;;5074792;28;20168;-59
2023/06/08 01:47:42;;;;;;;12.20;8.27;;;16.10;99.90;;;;;;5057960;28;20173;-60
2023/06/08 01:50:08;;;;;;;16.60;9.00;;;16.20;99.90;;;;;;5056634;28;20540;-60
2023/06/08 01:52:34;;;;;;;14.13;8.80;;;16.20;99.90;;;;;;5056232;28;20173;-60
2023/06/08 01:55:00;;;;;;;13.47;7.93;;;16.10;99.90;;;;;;5089580;28;20207;-60
2023/06/08 01:57:25;;;;;;;15.07;9.10;;;16.00;99.90;;;;;;5056902;28;20475;-60
2023/06/08 01:59:51;;;;;;;17.27;9.77;;;15.90;99.90;;;;;;5056666;28;20267;-59
2023/06/08 02:02:17;;;;;;;19.30;9.93;;;15.80;99.90;;;;;;5073966;28;20247;-62
2023/06/08 02:04:42;;;;;;;18.03;9.90;;;15.50;99.90;;;;;;5056441;28;20230;-59
2023/06/08 02:07:08;;;;;;;15.60;9.50;;;15.60;99.90;;;;;;5054061;28;20169;-59
2023/06/08 02:09:33;;;;;;;18.73;9.77;;;15.30;99.90;;;;;;5053925;28;20169;-59
2023/06/08 02:12:07;;;;;;;22.50;10.63;;;15.20;99.90;;;;;;5054317;28;20183;-60
2023/06/08 02:14:33;;;;;;;18.20;10.67;;;15.20;99.90;;;;;;5054472;28;20204;-60
2023/06/08 02:17:00;;;;;;;22.40;9.70;;;15.00;99.90;;;;;;5054790;28;20169;-59
2023/06/08 02:19:26;;;;;;;16.30;9.97;;;15.00;99.90;;;;;;5072726;28;20185;-59
2023/06/08 02:21:52;;;;;;;17.10;9.37;;;15.20;99.90;;;;;;5077370;28;20635;-60
2023/06/08 02:24:19;;;;;;;18.00;9.57;;;15.10;99.90;;;;;;5059908;28;20267;-59
2023/06/08 02:26:44;;;;;;;22.50;10.93;;;14.90;99.90;;;;;;5060203;28;20173;-59
2023/06/08 02:29:10;;;;;;;19.27;10.63;;;14.90;99.90;;;;;;5060350;28;20605;-59
2023/06/08 02:31:35;;;;;;;15.50;10.97;;;14.90;99.90;;;;;;5059563;28;20224;-59
2023/06/08 02:34:01;;;;;;;15.37;8.83;;;14.80;99.90;;;;;;5059816;28;20169;-61
2023/06/08 02:36:31;;;;;;;20.20;9.17;;;14.80;99.90;;;;;;5059763;28;20576;-60
2023/06/08 02:38:57;;;;;;;17.37;9.03;;;14.60;99.90;;;;;;5091538;28;20169;-59
2023/06/08 02:41:23;;;;;;;15.77;8.73;;;14.60;99.90;;;;;;5059609;28;20229;-59
2023/06/08 02:43:49;;;;;;;14.17;8.47;;;14.60;99.90;;;;;;5060056;28;20164;-60
2023/06/08 02:46:15;;;;;;;11.40;8.03;;;14.60;99.90;;;;;;5059162;28;20430;-56
2023/06/08 02:48:40;;;;;;;11.87;7.93;;;14.70;99.90;;;;;;5093014;28;20235;-57
2023/06/08 02:51:06;;;;;;;12.83;8.90;;;14.80;99.90;;;;;;5076813;28;20175;-58
2023/06/08 02:53:32;;;;;;;12.57;8.73;;;14.80;99.90;;;;;;5059811;28;20173;-57
2023/06/08 02:55:58;;;;;;;11.30;8.57;;;14.70;99.90;;;;;;5059425;28;20240;-58
2023/06/08 02:58:23;;;;;;;10.20;8.37;;;14.80;99.90;;;;;;5059100;28;20169;-57
2023/06/08 03:00:53;;;;;;;13.97;8.63;;;14.90;99.90;;;;;;5059531;28;20555;-59
2023/06/08 03:03:23;;;;;;;13.10;9.00;;;15.00;99.90;;;;;;5059114;28;20237;-59
2023/06/08 03:05:59;;;;;;;13.80;9.03;;;15.00;99.90;;;;;;5058322;28;20734;-58
2023/06/08 03:08:26;;;;;;;14.17;9.00;;;14.90;99.90;;;;;;5058732;28;20194;-59
2023/06/08 03:10:51;;;;;;;14.13;9.33;;;14.90;99.90;;;;;;5057920;28;20180;-58
2023/06/08 03:13:17;;;;;;;13.60;8.80;;;14.90;99.90;;;;;;5076078;28;20165;-59
2023/06/08 03:15:45;;;;;;;13.70;8.90;;;14.80;99.90;;;;;;5058790;28;20192;-59
2023/06/08 03:18:10;;;;;;;14.90;10.03;;;14.80;99.90;;;;;;5075853;28;20150;-58
2023/06/08 03:20:36;;;;;;;16.33;10.03;;;14.80;99.90;;;;;;5057992;28;20252;-59
2023/06/08 03:23:02;;;;;;;17.63;10.60;;;14.80;99.90;;;;;;5059237;28;20160;-58
2023/06/08 03:25:28;;;;;;;13.57;10.20;;;14.80;99.90;;;;;;5076050;28;20174;-59
2023/06/08 03:27:54;;;;;;;16.53;10.47;;;14.80;99.90;;;;;;5058697;28;20210;-59
2023/06/08 03:30:20;;;;;;;17.00;11.20;;;14.90;99.90;;;;;;5078425;28;20237;-59
2023/06/08 03:32:48;;;;;;;14.40;10.93;;;14.90;99.90;;;;;;5095931;28;20200;-59
2023/06/08 03:35:15;;;;;;;19.03;12.03;;;14.90;99.90;;;;;;5079792;28;20224;-58
2023/06/08 03:38:09;;;;;;;18.60;11.57;;;14.80;99.90;;;;;;5079147;28;20149;-60
2023/06/08 03:40:35;;;;;;;17.60;11.30;;;14.70;99.90;;;;;;5079455;28;20195;-59
2023/06/08 03:43:00;;;;;;;16.00;12.40;;;14.70;99.90;;;;;;5061290;28;20846;-60
2023/06/08 03:45:26;;;;;;;16.70;11.20;;;14.60;99.90;;;;;;5062283;28;20165;-59
2023/06/08 03:47:51;;;;;;;17.37;11.80;;;14.60;99.90;;;;;;5062516;28;20172;-58
2023/06/08 03:50:43;;;;;;;18.50;12.67;;;14.60;99.90;;;;;;5062728;28;20738;-60
2023/06/08 03:53:10;;;;;;;17.23;12.47;;;14.50;99.90;;;;;;5061568;28;20554;-59
2023/06/08 03:55:36;;;;;;;16.40;12.17;;;14.40;99.90;;;;;;5075762;28;20208;-59
2023/06/08 03:58:02;;;;;;;15.10;11.40;;;14.20;99.90;;;;;;5074204;28;20191;-59
2023/06/08 04:00:29;;;;;;;17.07;12.67;;;14.20;99.90;;;;;;5055388;28;20385;-59
2023/06/08 04:02:55;;;;;;;13.57;11.63;;;14.10;99.90;;;;;;5071881;28;20161;-59
2023/06/08 04:05:21;;;;;;;17.27;12.97;;;14.00;99.90;;;;;;5072395;28;20177;-58
2023/06/08 04:07:52;;;;;;;15.40;13.03;;;13.90;99.90;;;;;;5055952;28;20177;-59
2023/06/08 04:10:18;;;;;;;14.67;12.07;;;13.80;99.90;;;;;;5072801;28;20202;-58
2023/06/08 04:12:44;;;;;;;15.70;11.83;;;13.80;99.90;;;;;;5071635;28;20174;-60
2023/06/08 04:15:10;;;;;;;15.93;12.57;;;13.80;99.90;;;;;;5070836;28;20552;-58
2023/06/08 04:17:40;;;;;;;16.00;12.27;;;13.90;99.90;;;;;;5071036;28;20175;-59
2023/06/08 04:20:06;;;;;;;15.60;11.90;;;13.90;99.90;;;;;;5071919;28;20165;-59
2023/06/08 04:22:32;;;;;;;18.23;12.70;;;13.80;99.90;;;;;;5059268;28;20238;-59
2023/06/08 04:24:57;;;;;;;15.83;12.40;;;13.80;99.90;;;;;;5059121;28;20180;-59
2023/06/08 04:27:24;;;;;;;16.57;13.40;;;13.80;99.90;;;;;;5059475;28;20185;-59
2023/06/08 04:29:50;;;;;;;16.67;12.97;;;13.90;99.90;;;;;;5059028;28;20236;-59
2023/06/08 04:32:16;;;;;;;16.43;13.17;;;13.80;99.90;;;;;;5057694;28;20172;-59
2023/06/08 04:34:41;;;;;;;17.60;12.33;;;13.90;99.90;;;;;;5057944;28;20196;-59
2023/06/08 04:37:07;;;;;;;19.23;13.90;;;14.00;99.90;;;;;;5058536;28;20192;-59
2023/06/08 04:39:32;;;;;;;14.83;12.20;;;14.10;99.90;;;;;;5056182;28;20548;-59
2023/06/08 04:41:58;;;;;;;15.87;13.00;;;14.00;99.90;;;;;;5055671;28;20752;-59
2023/06/08 04:44:24;;;;;;;14.97;12.60;;;14.00;99.90;;;;;;5073895;28;20169;-59
2023/06/08 04:46:49;;;;;;;16.57;11.67;;;14.10;99.90;;;;;;5056451;28;20173;-59
2023/06/08 04:49:16;;;;;;;17.13;12.77;;;14.30;99.90;;;;;;5057146;28;20168;-59
2023/06/08 04:51:46;;;;;;;16.10;12.93;;;14.20;99.90;;;;;;5090155;28;20161;-59
2023/06/08 04:54:13;;;;;;;25.53;12.73;;;14.20;99.90;;;;;;5057225;28;20169;-59
2023/06/08 04:56:42;;;;;;;16.10;12.50;;;14.30;99.90;;;;;;5057383;28;20299;-59
2023/06/08 04:59:10;;;;;;;17.37;13.07;;;14.40;99.90;;;;;;5056270;28;20173;-59
2023/06/08 05:01:36;;;;;;;21.10;14.73;;;14.40;99.90;;;;;;5057346;28;20242;-58
2023/06/08 05:04:06;;;;;;;18.47;14.53;;;14.40;99.90;;;;;;5057543;28;20680;-57
2023/06/08 05:06:33;;;;;;;19.97;15.30;;;14.40;99.90;;;;;;5056370;28;20176;-57
2023/06/08 05:08:58;;;;;;;22.37;14.53;;;14.40;99.90;;;;;;5074299;28;20168;-59
2023/06/08 05:11:24;;;;;;;17.30;13.43;;;14.40;99.90;;;;;;5090561;28;20195;-59
2023/06/08 05:13:50;;;;;;;19.20;13.13;;;14.40;99.90;;;;;;5074386;28;20645;-60
2023/06/08 05:16:15;;;;;;;17.63;13.10;;;14.20;99.90;;;;;;5057737;28;20296;-58
2023/06/08 05:18:41;;;;;;;17.43;12.10;;;14.20;99.90;;;;;;5057372;28;20176;-59
2023/06/08 05:21:06;;;;;;;17.70;14.07;;;14.20;99.90;;;;;;5055884;28;20169;-59
2023/06/08 05:23:32;;;;;;;17.67;13.43;;;14.20;99.90;;;;;;5056008;28;20561;-57
2023/06/08 05:25:58;;;;;;;18.23;13.87;;;14.10;99.90;;;;;;5056888;28;20177;-61
2023/06/08 05:28:23;;;;;;;20.47;13.60;;;14.20;99.90;;;;;;5090124;28;20216;-60
2023/06/08 05:30:49;;;;;;;22.50;14.77;;;14.20;99.90;;;;;;5073745;28;20704;-59
2023/06/08 05:33:14;;;;;;;24.20;16.07;;;14.10;99.90;;;;;;5088467;28;20161;-59
2023/06/08 05:35:40;;;;;;;19.77;14.40;;;14.10;99.90;;;;;;5055575;28;20204;-59
2023/06/08 05:38:06;;;;;;;20.83;14.77;;;14.00;99.90;;;;;;5073304;28;20259;-58
2023/06/08 05:40:31;;;;;;;23.70;15.13;;;14.00;99.90;;;;;;5071225;28;20657;-59
2023/06/08 05:42:57;;;;;;;27.43;15.33;;;14.00;99.90;;;;;;5054494;28;20238;-59
2023/06/08 05:45:23;;;;;;;21.53;14.93;;;14.10;99.90;;;;;;5054942;28;20554;-59
2023/06/08 05:47:48;;;;;;;23.80;16.17;;;14.00;99.90;;;;;;5071243;28;20181;-60
2023/06/08 05:50:14;;;;;;;23.43;15.60;;;14.10;99.90;;;;;;5053850;28;20184;-59
2023/06/08 05:52:40;;;;;;;22.87;16.60;;;14.10;99.90;;;;;;5053417;28;20176;-60
2023/06/08 05:55:06;;;;;;;24.30;16.40;;;14.20;99.90;;;;;;5054320;28;20566;-59
2023/06/08 05:57:31;;;;;;;28.87;18.03;;;14.20;99.90;;;;;;5069506;28;20165;-60
2023/06/08 05:59:57;;;;;;;32.07;17.83;;;14.10;99.90;;;;;;5069138;28;20455;-60
2023/06/08 06:02:22;;;;;;;26.43;17.17;;;14.00;99.90;;;;;;5050325;28;20165;-59
2023/06/08 06:04:48;;;;;;;26.90;17.73;;;14.10;99.90;;;;;;5049410;28;20259;-56
2023/06/08 06:07:14;;;;;;;30.60;17.70;;;14.00;99.90;;;;;;5066735;28;20165;-59
2023/06/08 06:09:40;;;;;;;26.30;18.03;;;14.10;99.90;;;;;;5047777;28;20215;-60
2023/06/08 06:12:07;;;;;;;28.73;18.23;;;14.20;99.90;;;;;;5083559;28;20179;-59
2023/06/08 06:14:38;;;;;;;31.33;18.27;;;14.30;99.90;;;;;;5048935;28;20189;-58
2023/06/08 06:17:05;;;;;;;23.80;15.93;;;14.10;99.90;;;;;;5049866;28;20161;-59
2023/06/08 06:19:36;;;;;;;26.93;17.80;;;14.20;99.90;;;;;;5049746;28;20180;-60
2023/06/08 06:22:05;;;;;;;32.00;17.57;;;14.30;99.90;;;;;;5066322;28;20218;-58
2023/06/08 06:24:30;;;;;;;24.07;17.20;;;14.30;99.90;;;;;;5048366;28;20237;-59
2023/06/08 06:26:56;;;;;;;24.47;15.93;;;14.40;99.90;;;;;;5047258;28;20168;-59
2023/06/08 06:29:23;;;;;;;23.37;15.63;;;14.50;99.90;;;;;;5048644;28;20268;-59
2023/06/08 06:31:49;;;;;;;24.17;17.10;;;14.50;99.90;;;;;;5048788;28;20220;-59
2023/06/08 06:34:15;;;;;;;32.10;16.97;;;14.40;99.90;;;;;;5049605;28;20434;-59
2023/06/08 06:36:42;;;;;;;25.57;15.37;;;14.40;99.90;;;;;;5084856;28;20200;-60
2023/06/08 06:39:08;;;;;;;24.57;15.57;;;14.40;99.90;;;;;;5052388;28;20169;-61
2023/06/08 06:41:33;;;;;;;26.57;16.50;;;14.40;99.90;;;;;;5054885;28;20206;-59
2023/06/08 06:43:59;;;;;;;27.00;16.43;;;14.40;99.90;;;;;;5053068;28;20739;-59
2023/06/08 06:46:25;;;;;;;25.03;15.73;;;14.30;99.90;;;;;;5070995;28;20168;-60
2023/06/08 06:48:51;;;;;;;24.17;15.03;;;14.30;99.90;;;;;;5052410;28;20776;-59
2023/06/08 06:51:17;;;;;;;24.20;14.87;;;14.40;99.90;;;;;;5051600;28;20250;-59
2023/06/08 06:53:42;;;;;;;17.50;13.17;;;14.50;99.90;;;;;;5068866;28;20189;-59
2023/06/08 06:56:08;;;;;;;24.90;15.00;;;14.60;99.90;;;;;;5065862;28;20208;-58
2023/06/08 06:58:34;;;;;;;24.63;14.33;;;14.60;99.90;;;;;;5046721;28;20194;-59
2023/06/08 07:01:01;;;;;;;25.00;14.73;;;14.70;99.90;;;;;;5048463;28;20172;-59
2023/06/08 07:03:27;;;;;;;26.83;15.17;;;14.80;99.90;;;;;;5046608;28;20653;-59
2023/06/08 07:05:59;;;;;;;22.07;14.63;;;14.80;99.90;;;;;;5049092;28;20173;-59
2023/06/08 07:08:28;;;;;;;19.30;13.23;;;14.90;99.90;;;;;;5051384;28;20169;-59
2023/06/08 07:10:54;;;;;;;17.13;11.87;;;14.90;99.90;;;;;;5052172;28;20172;-59
2023/06/08 07:13:20;;;;;;;21.50;13.80;;;15.00;99.90;;;;;;5052851;28;20168;-59
2023/06/08 07:15:45;;;;;;;17.27;11.90;;;15.00;99.90;;;;;;5052381;28;20196;-59
2023/06/08 07:18:11;;;;;;;19.70;11.90;;;15.10;99.90;;;;;;5050079;28;20594;-59
2023/06/08 07:20:36;;;;;;;24.47;14.47;;;15.20;99.90;;;;;;5064058;28;20200;-59
2023/06/08 07:23:02;;;;;;;23.90;14.50;;;15.20;99.90;;;;;;5047668;28;20215;-60
2023/06/08 07:25:27;;;;;;;20.40;13.07;;;15.20;99.90;;;;;;5047215;28;20233;-60
2023/06/08 07:27:53;;;;;;;21.70;14.77;;;15.20;99.90;;;;;;5046427;28;20242;-60
2023/06/08 07:30:19;;;;;;;18.17;11.20;;;15.20;99.90;;;;;;5046122;28;20272;-60
2023/06/08 07:32:45;;;;;;;18.93;12.97;;;15.20;99.90;;;;;;5046855;28;20200;-60
2023/06/08 07:35:11;;;;;;;17.33;10.97;;;15.30;99.90;;;;;;5047865;28;20204;-60
2023/06/08 07:37:37;;;;;;;17.50;12.10;;;15.30;99.90;;;;;;5050411;28;20207;-60
2023/06/08 07:40:07;;;;;;;20.60;14.10;;;15.40;99.90;;;;;;5065620;28;20536;-60
2023/06/08 07:42:34;;;;;;;13.97;11.27;;;15.40;99.90;;;;;;5033543;28;20245;-60
2023/06/08 07:45:00;;;;;;;12.60;9.33;;;15.40;99.90;;;;;;5067534;28;20161;-60
2023/06/08 07:47:25;;;;;;;14.73;10.40;;;15.50;99.90;;;;;;5070044;28;20775;-60
2023/06/08 07:49:52;;;;;;;12.67;9.03;;;15.50;99.90;;;;;;5054060;28;20204;-61
2023/06/08 07:52:18;;;;;;;30.13;14.97;;;15.60;99.90;;;;;;5054002;28;20175;-59
2023/06/08 07:54:53;;;;;;;22.20;13.67;;;15.60;99.90;;;;;;5052552;28;20188;-59
2023/06/08 07:57:19;;;;;;;21.50;13.90;;;15.60;99.90;;;;;;5052681;28;20233;-60
2023/06/08 07:59:45;;;;;;;20.70;12.73;;;15.70;99.90;;;;;;5067677;28;20195;-59
2023/06/08 08:02:11;;;;;;;20.13;13.20;;;15.70;99.90;;;;;;5083423;28;20263;-59
2023/06/08 08:04:36;;;;;;;21.23;12.10;;;15.70;99.90;;;;;;5049789;28;20766;-58
2023/06/08 08:07:02;;;;;;;16.67;10.80;;;15.80;99.90;;;;;;5067525;28;20247;-59
2023/06/08 08:09:28;;;;;;;12.73;10.47;;;15.80;99.90;;;;;;5068631;28;20172;-60
2023/06/08 08:11:53;;;;;;;26.43;18.83;;;15.90;99.90;;;;;;5050989;28;20165;-59
2023/06/08 08:14:19;;;;;;;24.17;15.67;;;15.90;99.90;;;;;;5049973;28;20234;-60
2023/06/08 08:16:45;;;;;;;19.63;12.73;;;16.00;99.90;;;;;;5046415;28;20209;-60
2023/06/08 08:19:11;;;;;;;23.13;13.67;;;16.00;99.90;;;;;;5068276;28;20256;-60
2023/06/08 08:21:37;;;;;;;26.80;15.90;;;16.00;99.90;;;;;;5084793;28;20544;-60
2023/06/08 08:24:03;;;;;;;16.80;13.23;;;16.00;99.90;;;;;;5048711;28;20171;-59
2023/06/08 08:26:28;;;;;;;21.30;12.67;;;16.00;99.90;;;;;;5050440;28;20249;-60
2023/06/08 08:28:55;;;;;;;20.30;11.10;;;16.10;99.90;;;;;;5066957;28;20726;-60
2023/06/08 08:31:22;;;;;;;17.60;11.47;;;16.10;99.90;;;;;;5066043;28;20640;-60
2023/06/08 08:33:47;;;;;;;17.43;11.63;;;16.20;99.90;;;;;;5065216;28;20173;-60
2023/06/08 08:36:13;;;;;;;15.17;10.37;;;16.20;99.90;;;;;;5046453;28;20200;-59
2023/06/08 08:38:40;;;;;;;17.33;10.73;;;16.30;99.90;;;;;;5047780;28;20161;-60
2023/06/08 08:41:09;;;;;;;17.17;11.87;;;16.30;99.90;;;;;;5032426;28;20176;-60
2023/06/08 08:44:01;;;;;;;16.63;11.90;;;16.40;99.90;;;;;;5034271;28;20168;-60
2023/06/08 08:46:33;;;;;;;22.00;13.63;;;16.50;99.90;;;;;;5070564;28;20164;-60
2023/06/08 08:49:04;;;;;;;19.63;13.60;;;16.50;99.90;;;;;;5037894;28;20572;-60
2023/06/08 08:51:32;;;;;;;20.30;14.00;;;16.60;99.90;;;;;;5053462;28;20444;-60
2023/06/08 08:57:20;;;;;;;19.80;12.03;;;16.70;99.90;;;;;;5075578;28;20235;-60
2023/06/08 08:59:46;;;;;;;21.03;14.03;;;16.70;99.90;;;;;;5075022;28;20180;-58
2023/06/08 09:02:13;;;;;;;16.73;12.33;;;16.80;99.90;;;;;;5039259;28;20184;-60
2023/06/08 09:04:39;;;;;;;19.57;14.40;;;16.80;99.90;;;;;;5070897;28;20226;-59
2023/06/08 09:07:04;;;;;;;22.10;16.07;;;16.90;99.90;;;;;;5054250;28;20168;-60
2023/06/08 09:09:33;;;;;;;15.73;12.93;;;16.90;99.90;;;;;;5069941;28;20256;-60
2023/06/08 09:12:00;;;;;;;20.87;13.93;;;16.90;99.90;;;;;;5051228;28;20169;-60
2023/06/08 09:14:28;;;;;;;20.93;13.50;;;16.90;99.90;;;;;;5049649;28;20173;-59
2023/06/08 09:16:55;;;;;;;21.43;12.63;;;17.00;99.90;;;;;;5066990;28;20789;-60
2023/06/08 09:19:22;;;;;;;18.87;12.03;;;17.00;99.90;;;;;;5049026;28;20275;-67
2023/06/08 09:21:48;;;;;;;14.23;10.97;;;17.10;99.90;;;;;;5048338;28;20241;-67
2023/06/08 09:24:20;;;;;;;14.47;11.63;;;17.10;99.90;;;;;;5065769;28;20160;-67
2023/06/08 09:26:56;;;;;;;16.83;11.90;;;17.20;99.90;;;;;;5066227;28;20678;-68
2023/06/08 09:29:44;;;;;;;21.53;14.87;;;17.30;99.90;;;;;;5049911;28;20617;-67
2023/06/08 09:32:16;;;;;;;18.33;12.43;;;17.40;99.90;;;;;;5025618;28;20193;-66
2023/06/08 09:34:49;;;;;;;22.67;11.97;;;17.40;99.90;;;;;;5009442;28;20541;-67
2023/06/08 09:37:16;;;;;;;16.77;11.90;;;17.50;99.90;;;;;;5026527;28;20166;-67
2023/06/08 09:39:44;;;;;;;15.90;11.13;;;17.50;99.90;;;;;;5027628;28;20174;-67
2023/06/08 09:42:11;;;;;;;21.83;14.37;;;17.60;99.90;;;;;;5012028;28;20709;-67
2023/06/08 09:44:38;;;;;;;16.60;12.87;;;17.60;99.90;;;;;;5026271;28;20166;-67
2023/06/08 09:47:22;;;;;;;18.00;11.97;;;17.70;99.90;;;;;;5023910;28;20488;-67
2023/06/08 09:49:53;;;;;;;15.77;12.00;;;17.80;99.90;;;;;;5007889;28;20174;-67
2023/06/08 09:52:24;;;;;;;17.93;14.20;;;17.80;99.90;;;;;;5023717;28;20205;-67
2023/06/08 09:54:51;;;;;;;14.87;11.23;;;17.80;99.90;;;;;;5025066;28;20720;-67
2023/06/08 09:57:20;;;;;;;15.60;12.27;;;17.90;99.90;;;;;;5026027;28;20174;-67
2023/06/08 09:59:50;;;;;;;18.33;13.00;;;18.00;99.90;;;;;;5026068;28;20573;-67
2023/06/08 10:02:29;;;;;;;17.23;11.23;;;18.00;99.90;;;;;;5025310;28;20908;-56
2023/06/08 10:05:06;;;;;;;16.37;11.17;;;18.10;99.90;;;;;;5028120;28;20792;-59
2023/06/08 10:07:35;;;;;;;15.10;12.03;;;18.10;99.90;;;;;;5029212;28;20184;-58
2023/06/08 10:10:15;;;;;;;17.07;11.13;;;18.20;99.90;;;;;;5010349;28;20574;-59
2023/06/08 10:12:42;;;;;;;13.80;10.53;;;18.30;99.90;;;;;;5025207;28;20450;-59
2023/06/08 10:15:08;;;;;;;16.40;11.63;;;18.30;99.90;;;;;;5026485;28;20210;-59
2023/06/08 10:17:35;;;;;;;18.63;10.83;;;18.40;99.90;;;;;;5026691;28;20174;-58
2023/06/08 10:20:05;;;;;;;13.93;10.33;;;18.40;99.90;;;;;;5026461;28;20162;-59
2023/06/08 10:22:33;;;;;;;16.30;11.33;;;18.50;99.90;;;;;;5025455;28;20245;-57
2023/06/08 10:24:59;;;;;;;13.63;9.50;;;18.50;99.90;;;;;;5027431;28;20173;-59
2023/06/08 10:27:29;;;;;;;13.73;10.83;;;18.60;99.90;;;;;;5026557;28;20171;-60
2023/06/08 10:29:58;;;;;;;16.07;10.57;;;18.60;99.90;;;;;;5025583;28;20324;-55
2023/06/08 10:32:32;;;;;;;16.47;11.10;;;18.70;99.90;;;;;;5024891;28;20756;-58
2023/06/08 10:35:06;;;;;;;12.87;10.57;;;18.70;99.90;;;;;;5021430;28;20247;-57
2023/06/08 10:37:33;;;;;;;11.97;9.83;;;18.80;99.90;;;;;;5021899;28;20853;-59
2023/06/08 10:40:06;;;;;;;16.03;10.70;;;18.80;99.90;;;;;;5019758;28;20173;-57
2023/06/08 10:42:33;;;;;;;11.67;9.17;;;18.90;99.90;;;;;;5003092;28;20184;-59
2023/06/08 10:45:00;;;;;;;12.80;10.37;;;19.00;99.90;;;;;;5019054;28;20235;-59
2023/06/08 10:47:31;;;;;;;11.27;7.67;;;19.10;99.90;;;;;;5016419;28;20783;-58
2023/06/08 10:50:03;;;;;;;13.63;9.67;;;19.20;99.90;;;;;;5014010;28;20174;-59
2023/06/08 10:52:44;;;;;;;16.73;10.83;;;19.20;99.90;;;;;;5015155;28;20182;-59
2023/06/08 10:55:12;;;;;;;11.83;8.57;;;19.30;99.90;;;;;;5016056;28;20205;-58
2023/06/08 10:57:52;;;;;;;14.30;7.87;;;19.40;99.90;;;;;;5018178;28;20177;-59
2023/06/08 11:00:24;;;;;;;12.60;7.53;;;19.40;99.90;;;;;;5020372;28;20236;-59
2023/06/08 11:02:51;;;;;;;11.97;6.90;;;19.50;99.90;;;;;;5022229;28;20741;-59
2023/06/08 11:05:17;;;;;;;12.07;8.77;;;19.50;99.90;;;;;;5021976;28;20178;-58
2023/06/08 11:07:44;;;;;;;13.60;8.43;;;19.60;99.90;;;;;;5019901;28;20275;-58
2023/06/08 11:10:11;;;;;;;12.33;7.80;;;19.60;99.90;;;;;;5017743;28;20787;-59
2023/06/08 11:12:37;;;;;;;12.13;7.70;;;19.70;99.90;;;;;;5018016;28;20170;-59
2023/06/08 11:15:05;;;;;;;9.23;6.43;;;19.70;99.90;;;;;;5015650;28;20824;-59
2023/06/08 11:17:53;;;;;;;11.20;5.47;;;19.80;99.90;;;;;;5016589;28;20252;-57
2023/06/08 11:20:28;;;;;;;8.70;5.97;;;19.90;99.90;;;;;;5016681;28;20163;-59
2023/06/08 11:22:54;;;;;;;6.90;5.10;;;19.90;99.90;;;;;;5015896;28;20168;-59
2023/06/08 11:25:21;;;;;;;7.90;5.80;;;19.90;99.90;;;;;;5018974;28;20799;-59
2023/06/08 11:27:52;;;;;;;8.10;5.67;;;20.00;99.90;;;;;;5018594;28;20170;-57
2023/06/08 11:30:21;;;;;;;7.30;4.90;;;20.00;99.90;;;;;;5030944;28;20224;-57
2023/06/08 11:32:50;;;;;;;8.70;5.40;;;20.10;99.90;;;;;;5038256;28;20173;-59
2023/06/08 11:35:21;;;;;;;9.13;5.37;;;20.20;99.90;;;;;;5038050;28;20201;-57
2023/06/08 11:37:56;;;;;;;8.90;5.90;;;20.30;99.90;;;;;;5038661;28;20169;-59
2023/06/08 11:40:22;;;;;;;10.17;4.97;;;20.50;99.90;;;;;;5038613;28;20183;-58
2023/06/08 11:42:49;;;;;;;9.13;4.97;;;20.60;99.90;;;;;;5040469;28;20173;-57
2023/06/08 11:45:15;;;;;;;6.37;4.40;;;20.70;99.90;;;;;;5040525;28;20640;-57
2023/06/08 11:47:43;;;;;;;7.53;3.97;;;20.80;99.90;;;;;;5042506;28;20279;-59
2023/06/08 11:50:13;;;;;;;9.80;5.10;;;20.90;99.90;;;;;;5025550;28;20291;-60
2023/06/08 11:52:42;;;;;;;4.10;3.47;;;21.10;99.90;;;;;;5031276;28;20206;-61
2023/06/08 11:55:12;;;;;;;8.13;3.93;;;21.20;99.90;;;;;;5067677;28;20516;-60
2023/06/08 11:57:54;;;;;;;5.77;3.83;;;21.30;99.90;;;;;;5033753;28;20268;-59
2023/06/08 12:00:21;;;;;;;5.80;3.77;;;21.40;99.90;;;;;;5067684;28;20180;-58
2023/06/08 12:02:49;;;;;;;6.10;3.80;;;21.60;99.90;;;;;;5049217;28;20201;-56
2023/06/08 12:05:26;;;;;;;6.07;3.97;;;21.70;99.90;;;;;;5049820;28;20184;-59
2023/06/08 12:07:54;;;;;;;8.90;4.63;;;21.90;99.90;;;;;;5047971;28;20436;-57
2023/06/08 12:10:20;;;;;;;7.67;3.60;;;22.00;99.90;;;;;;5039930;28;20275;-58
2023/06/08 12:12:48;;;;;;;6.00;3.60;;;22.00;99.90;;;;;;5038068;28;20263;-59
2023/06/08 12:15:18;;;;;;;10.40;3.80;;;22.20;99.90;;;;;;5055051;28;20463;-58
2023/06/08 12:17:43;;;;;;;5.67;3.60;;;22.20;99.90;;;;;;5056643;28;20157;-59
2023/06/08 12:20:14;;;;;;;6.20;4.17;;;22.40;99.90;;;;;;5035265;28;20168;-58
2023/06/08 12:22:40;;;;;;;11.83;4.10;;;22.50;99.90;;;;;;5043401;28;20176;-59
2023/06/08 12:25:06;;;;;;;8.80;3.87;;;22.60;99.90;;;;;;5042412;28;20173;-58
2023/06/08 12:27:36;;;;;;;6.88;3.53;;;22.80;99.90;;;;;;5061575;28;20487;-59
2023/06/08 12:30:03;;;;;;;6.27;3.87;;;22.90;99.90;;;;;;5059808;28;20228;-57
2023/06/08 12:32:29;;;;;;;5.68;3.28;;;23.10;99.90;;;;;;5043240;28;20168;-59
2023/06/08 12:34:55;;;;;;;8.07;4.13;;;23.30;99.90;;;;;;5041848;28;20207;-59
2023/06/08 12:37:20;;;;;;;8.13;4.27;;;23.40;99.90;;;;;;5043867;28;20173;-58
2023/06/08 12:39:46;;;;;;;6.95;3.58;;;23.50;99.90;;;;;;5046541;28;20165;-57
2023/06/08 12:42:12;;;;;;;7.63;3.67;;;23.60;99.90;;;;;;5066564;28;20180;-58